Time;durP1;ratioP1;P1;durP2;ratioP2;P2;SDS_P1;SDS_P2;PMS_P1;PMS_P2;Temp;Humidity;BMP_temperature;BMP_pressure;BME280_temperature;BME280_humidity;BME280_pressure;Samples;Min_cycle;Max_cycle;Signal;HPM_P1;HPM_P2
2021/04/30 00:00:52;;;;;;;22.17;7.22;;;7.30;99.90;;;;;;5075186;28;20111;-74
2021/04/30 00:03:19;;;;;;;32.90;7.40;;;7.30;99.90;;;;;;5075669;28;20078;-74
2021/04/30 00:05:45;;;;;;;18.83;6.75;;;7.20;99.90;;;;;;5074550;28;20027;-74
2021/04/30 00:08:12;;;;;;;20.02;5.78;;;7.30;99.90;;;;;;5074745;28;20418;-75
2021/04/30 00:10:38;;;;;;;18.60;6.03;;;7.20;99.90;;;;;;5075923;28;20025;-76
2021/04/30 00:13:04;;;;;;;21.90;6.22;;;7.10;99.90;;;;;;5078169;28;20032;-75
2021/04/30 00:15:30;;;;;;;13.85;6.07;;;7.10;99.90;;;;;;5076422;28;20061;-74
2021/04/30 00:17:55;;;;;;;12.32;6.60;;;7.10;99.90;;;;;;5073917;28;20120;-76
2021/04/30 00:20:21;;;;;;;19.83;5.97;;;7.10;99.90;;;;;;5080404;28;20021;-76
2021/04/30 00:22:47;;;;;;;20.45;6.82;;;7.10;99.90;;;;;;5075483;28;20491;-75
2021/04/30 00:25:12;;;;;;;22.92;7.35;;;7.00;99.90;;;;;;5074369;28;20473;-75
2021/04/30 00:27:38;;;;;;;23.88;6.47;;;7.10;99.90;;;;;;5073806;28;20040;-75
2021/04/30 00:30:06;;;;;;;26.75;6.80;;;7.10;99.90;;;;;;5074421;28;20569;-75
2021/04/30 00:32:32;;;;;;;24.33;6.93;;;7.00;99.90;;;;;;5074107;28;20113;-75
2021/04/30 00:35:01;;;;;;;18.67;6.90;;;7.00;99.90;;;;;;5073602;28;20490;-74
2021/04/30 00:37:27;;;;;;;21.73;6.57;;;7.10;99.90;;;;;;5073734;28;20048;-75
2021/04/30 00:39:52;;;;;;;15.05;7.22;;;7.00;99.90;;;;;;5074393;28;20023;-73
2021/04/30 00:42:18;;;;;;;12.48;6.80;;;7.00;99.90;;;;;;5073180;28;20048;-74
2021/04/30 00:44:45;;;;;;;24.55;6.97;;;7.10;99.90;;;;;;5074211;28;20025;-74
2021/04/30 00:47:28;;;;;;;24.40;7.28;;;7.00;99.90;;;;;;5073840;28;20044;-74
2021/04/30 00:49:53;;;;;;;16.08;6.43;;;7.10;99.90;;;;;;5074275;28;20023;-74
2021/04/30 00:52:19;;;;;;;19.02;6.57;;;7.10;99.90;;;;;;5073607;28;20029;-73
2021/04/30 00:54:45;;;;;;;27.42;7.00;;;7.10;99.90;;;;;;5073402;28;20030;-73
2021/04/30 00:57:11;;;;;;;13.80;5.32;;;7.10;99.90;;;;;;5073779;28;20025;-75
2021/04/30 00:59:38;;;;;;;21.05;6.03;;;7.10;99.90;;;;;;5073464;28;20077;-75
2021/04/30 01:02:04;;;;;;;20.13;6.20;;;7.10;99.90;;;;;;5073108;28;20040;-75
2021/04/30 01:04:29;;;;;;;20.85;6.57;;;7.10;99.90;;;;;;5073521;28;20021;-75
2021/04/30 01:06:55;;;;;;;15.90;5.90;;;7.10;99.90;;;;;;5073728;28;20495;-75
2021/04/30 01:09:21;;;;;;;18.50;6.43;;;7.10;99.90;;;;;;5072869;28;20507;-74
2021/04/30 01:11:46;;;;;;;21.58;6.13;;;7.10;99.90;;;;;;5073764;28;20021;-74
2021/04/30 01:14:12;;;;;;;21.90;6.82;;;7.10;99.90;;;;;;5073943;28;20051;-74
2021/04/30 01:16:37;;;;;;;19.27;5.72;;;7.10;99.90;;;;;;5072587;28;20476;-75
2021/04/30 01:19:03;;;;;;;22.27;5.68;;;7.10;99.90;;;;;;5073678;28;20043;-75
2021/04/30 01:21:28;;;;;;;18.02;5.80;;;7.10;99.90;;;;;;5073211;28;20424;-75
2021/04/30 01:23:54;;;;;;;22.05;6.57;;;7.10;99.90;;;;;;5072518;28;20549;-75
2021/04/30 01:26:21;;;;;;;12.90;4.93;;;7.10;99.90;;;;;;5073060;28;20037;-74
2021/04/30 01:28:47;;;;;;;14.80;5.88;;;7.10;99.90;;;;;;5072813;28;20016;-75
2021/04/30 01:31:14;;;;;;;16.17;5.63;;;7.00;99.90;;;;;;5072410;28;20028;-75
2021/04/30 01:33:40;;;;;;;17.17;5.32;;;7.10;99.90;;;;;;5073290;28;20016;-75
2021/04/30 01:36:08;;;;;;;24.35;5.15;;;7.10;99.90;;;;;;5073150;28;20362;-75
2021/04/30 01:38:33;;;;;;;23.25;5.55;;;7.10;99.90;;;;;;5071721;28;20060;-75
2021/04/30 01:40:59;;;;;;;16.45;5.05;;;7.10;99.90;;;;;;5073096;28;20468;-75
2021/04/30 01:43:25;;;;;;;19.45;5.05;;;7.10;99.90;;;;;;5072796;28;20037;-73
2021/04/30 01:46:04;;;;;;;14.98;5.38;;;7.10;99.90;;;;;;5072540;28;20023;-73
2021/04/30 01:48:31;;;;;;;15.93;5.07;;;7.10;99.90;;;;;;5072802;28;20033;-74
2021/04/30 01:50:59;;;;;;;10.57;5.40;;;7.10;99.90;;;;;;5072108;28;20028;-75
2021/04/30 01:53:27;;;;;;;15.38;5.10;;;7.10;99.90;;;;;;5072550;28;20020;-75
2021/04/30 01:55:53;;;;;;;12.07;5.93;;;7.10;99.90;;;;;;5072588;28;20037;-74
2021/04/30 01:58:19;;;;;;;19.92;4.88;;;7.10;99.90;;;;;;5072239;28;20060;-75
2021/04/30 02:00:45;;;;;;;16.95;5.50;;;7.10;99.90;;;;;;5073628;28;20424;-75
2021/04/30 02:03:11;;;;;;;26.77;5.75;;;7.10;99.90;;;;;;5074784;28;20067;-75
2021/04/30 02:05:38;;;;;;;14.43;5.50;;;7.10;99.90;;;;;;5075411;28;20496;-76
2021/04/30 02:08:05;;;;;;;20.30;4.55;;;7.10;99.90;;;;;;5073245;28;20047;-75
2021/04/30 02:10:32;;;;;;;14.88;4.95;;;7.10;99.90;;;;;;5072031;28;20021;-74
2021/04/30 02:12:58;;;;;;;16.63;4.65;;;7.20;99.90;;;;;;5071741;28;20115;-74
2021/04/30 02:15:26;;;;;;;14.55;5.22;;;7.20;99.90;;;;;;5072376;28;20572;-75
2021/04/30 02:17:52;;;;;;;15.68;5.57;;;7.20;99.90;;;;;;5076103;28;20024;-74
2021/04/30 02:20:19;;;;;;;17.33;5.13;;;7.20;99.90;;;;;;5072891;28;20024;-75
2021/04/30 02:22:45;;;;;;;11.70;5.20;;;7.20;99.90;;;;;;5077492;28;20020;-74
2021/04/30 02:25:12;;;;;;;14.25;4.93;;;7.30;99.90;;;;;;5072646;28;20032;-75
2021/04/30 02:27:38;;;;;;;17.05;5.28;;;7.30;99.90;;;;;;5070607;28;20087;-75
2021/04/30 02:30:05;;;;;;;25.13;5.35;;;7.20;99.90;;;;;;5072322;28;20020;-75
2021/04/30 02:32:33;;;;;;;15.05;5.05;;;7.40;99.90;;;;;;5072087;28;20067;-75
2021/04/30 02:34:58;;;;;;;17.05;5.53;;;7.30;99.90;;;;;;5071474;28;20028;-75
2021/04/30 02:37:24;;;;;;;11.10;4.45;;;7.30;99.90;;;;;;5071440;28;20049;-75
2021/04/30 02:39:50;;;;;;;14.70;5.60;;;7.30;99.90;;;;;;5072060;28;20016;-75
2021/04/30 02:42:16;;;;;;;18.73;4.85;;;7.30;99.90;;;;;;5070642;28;20099;-75
2021/04/30 02:44:43;;;;;;;20.23;5.13;;;7.30;99.90;;;;;;5071762;28;20017;-75
2021/04/30 02:47:09;;;;;;;14.13;4.38;;;7.40;99.90;;;;;;5071437;28;20047;-75
2021/04/30 02:49:53;;;;;;;13.13;4.47;;;7.40;99.90;;;;;;5071920;28;20021;-75
2021/04/30 02:52:19;;;;;;;21.85;5.97;;;7.30;99.90;;;;;;5071701;28;20093;-75
2021/04/30 02:54:45;;;;;;;18.70;5.13;;;7.40;99.90;;;;;;5071245;28;20016;-75
2021/04/30 02:57:13;;;;;;;14.45;4.13;;;7.40;99.90;;;;;;5073139;28;20029;-74
2021/04/30 02:59:39;;;;;;;23.17;6.22;;;7.40;99.90;;;;;;5071873;28;20024;-74
2021/04/30 03:02:05;;;;;;;19.83;5.28;;;7.40;99.90;;;;;;5071244;28;20012;-75
2021/04/30 03:04:31;;;;;;;19.25;4.95;;;7.40;99.90;;;;;;5071547;28;20016;-74
2021/04/30 03:06:56;;;;;;;17.05;4.88;;;7.40;99.90;;;;;;5071653;28;20032;-74
2021/04/30 03:09:22;;;;;;;20.55;4.90;;;7.40;99.90;;;;;;5071038;28;20017;-74
2021/04/30 03:11:47;;;;;;;27.60;6.43;;;7.40;99.90;;;;;;5071599;28;20024;-74
2021/04/30 03:14:13;;;;;;;13.15;4.90;;;7.40;99.90;;;;;;5071914;28;20033;-74
2021/04/30 03:16:39;;;;;;;17.77;5.90;;;7.40;99.90;;;;;;5070856;28;20354;-74
2021/04/30 03:19:05;;;;;;;15.20;4.70;;;7.40;99.90;;;;;;5071638;28;20104;-74
2021/04/30 03:21:31;;;;;;;15.80;4.50;;;7.40;99.90;;;;;;5071253;28;20033;-74
2021/04/30 03:23:57;;;;;;;20.08;5.88;;;7.40;99.90;;;;;;5071067;28;20028;-74
2021/04/30 03:26:22;;;;;;;16.52;5.10;;;7.40;99.90;;;;;;5071460;28;20037;-74
2021/04/30 03:28:48;;;;;;;17.75;6.05;;;7.40;99.90;;;;;;5071610;28;20044;-74
2021/04/30 03:31:14;;;;;;;18.00;4.80;;;7.40;99.90;;;;;;5070701;28;20020;-74
2021/04/30 03:33:39;;;;;;;21.25;5.38;;;7.40;99.90;;;;;;5071290;28;20027;-74
2021/04/30 03:36:06;;;;;;;14.60;4.75;;;7.30;99.90;;;;;;5071385;28;20024;-74
2021/04/30 03:38:35;;;;;;;18.70;5.00;;;7.30;99.90;;;;;;5070394;28;20401;-76
2021/04/30 03:41:01;;;;;;;14.93;5.65;;;7.40;99.90;;;;;;5071398;28;20112;-75
2021/04/30 03:43:26;;;;;;;11.75;4.40;;;7.40;99.90;;;;;;5070524;28;20097;-75
2021/04/30 03:45:52;;;;;;;20.75;4.43;;;7.30;99.90;;;;;;5071153;28;20379;-75
2021/04/30 03:48:18;;;;;;;14.15;4.55;;;7.70;99.90;;;;;;5070830;28;20484;-75
2021/04/30 03:50:44;;;;;;;15.75;5.07;;;8.50;99.90;;;;;;5070769;28;20431;-75
2021/04/30 03:53:10;;;;;;;16.73;6.50;;;7.40;99.90;;;;;;5073810;28;20025;-75
2021/04/30 03:55:36;;;;;;;23.38;5.60;;;7.40;99.90;;;;;;5074840;28;20025;-75
2021/04/30 03:58:01;;;;;;;16.27;4.97;;;7.40;99.90;;;;;;5074313;28;20031;-75
2021/04/30 04:00:27;;;;;;;16.17;5.00;;;8.50;99.90;;;;;;5074818;28;20024;-75
2021/04/30 04:02:53;;;;;;;11.05;5.32;;;6.50;99.90;;;;;;5075055;28;20021;-75
2021/04/30 04:05:20;;;;;;;18.88;4.82;;;7.40;99.90;;;;;;5074172;28;20115;-75
2021/04/30 04:07:45;;;;;;;13.63;4.65;;;7.30;99.90;;;;;;5076766;28;20064;-76
2021/04/30 04:10:12;;;;;;;15.02;5.60;;;7.40;99.90;;;;;;5077279;28;20463;-75
2021/04/30 04:12:39;;;;;;;11.10;5.20;;;7.30;99.90;;;;;;5073957;28;20028;-75
2021/04/30 04:15:06;;;;;;;15.48;5.15;;;7.40;99.90;;;;;;5074653;28;20020;-75
2021/04/30 04:17:31;;;;;;;11.10;5.20;;;7.40;99.90;;;;;;5074658;28;20028;-75
2021/04/30 04:20:00;;;;;;;23.15;6.47;;;7.30;99.90;;;;;;5075434;28;20021;-74
2021/04/30 04:22:26;;;;;;;17.83;4.68;;;7.30;99.90;;;;;;5075971;28;20150;-75
2021/04/30 04:24:52;;;;;;;17.52;5.20;;;7.30;99.90;;;;;;5079795;28;20474;-75
2021/04/30 04:27:17;;;;;;;18.85;5.00;;;7.30;99.90;;;;;;5073534;28;20036;-75
2021/04/30 04:29:43;;;;;;;11.88;5.68;;;7.30;99.90;;;;;;5074469;28;20019;-74
2021/04/30 04:32:09;;;;;;;26.13;5.82;;;7.40;99.90;;;;;;5074116;28;20103;-75
2021/04/30 04:34:35;;;;;;;15.05;5.57;;;7.30;99.90;;;;;;5073287;28;20032;-73
2021/04/30 04:37:02;;;;;;;14.68;5.75;;;7.30;99.90;;;;;;5073942;28;20045;-74
2021/04/30 04:39:29;;;;;;;20.67;6.22;;;8.40;99.90;;;;;;5073714;28;20111;-75
2021/04/30 04:41:55;;;;;;;15.95;6.07;;;7.40;99.90;;;;;;5072904;28;20021;-75
2021/04/30 04:44:21;;;;;;;16.48;5.80;;;7.40;99.90;;;;;;5073659;28;20023;-75
2021/04/30 04:46:46;;;;;;;13.57;6.50;;;7.40;99.90;;;;;;5073428;28;20044;-75
2021/04/30 04:49:12;;;;;;;23.25;6.20;;;7.50;99.90;;;;;;5073957;28;20020;-75
2021/04/30 04:51:37;;;;;;;14.82;6.38;;;7.40;99.90;;;;;;5074119;28;20036;-75
2021/04/30 04:54:04;;;;;;;23.05;6.43;;;8.00;99.90;;;;;;5073455;28;20021;-75
2021/04/30 04:56:29;;;;;;;18.65;7.45;;;7.50;99.90;;;;;;5073623;28;20028;-75
2021/04/30 04:58:55;;;;;;;22.25;6.97;;;7.50;99.90;;;;;;5073903;28;20024;-75
2021/04/30 05:01:21;;;;;;;19.92;6.95;;;7.50;99.90;;;;;;5072627;28;20027;-75
2021/04/30 05:03:47;;;;;;;9.82;6.72;;;7.50;99.90;;;;;;5073046;28;20017;-75
2021/04/30 05:06:13;;;;;;;17.67;7.25;;;7.50;99.90;;;;;;5073571;28;20089;-75
2021/04/30 05:08:39;;;;;;;18.60;7.88;;;7.50;99.90;;;;;;5073258;28;20032;-75
2021/04/30 05:11:05;;;;;;;14.02;7.13;;;7.50;99.90;;;;;;5073455;28;20022;-74
2021/04/30 05:13:32;;;;;;;14.60;7.65;;;7.50;99.90;;;;;;5073429;28;20043;-74
2021/04/30 05:15:59;;;;;;;18.33;7.32;;;7.50;99.90;;;;;;5072854;28;20070;-75
2021/04/30 05:18:25;;;;;;;22.17;8.95;;;7.60;99.90;;;;;;5073036;28;20525;-75
2021/04/30 05:20:52;;;;;;;17.77;7.85;;;7.60;99.90;;;;;;5073640;28;20031;-74
2021/04/30 05:23:17;;;;;;;22.15;9.05;;;7.60;99.90;;;;;;5072247;28;20033;-75
2021/04/30 05:25:43;;;;;;;17.88;8.45;;;7.60;99.90;;;;;;5073912;28;20024;-74
2021/04/30 05:28:09;;;;;;;15.63;8.77;;;7.70;99.90;;;;;;5073164;28;20041;-74
2021/04/30 05:30:35;;;;;;;18.40;8.63;;;7.70;99.90;;;;;;5072607;28;20124;-73
2021/04/30 05:33:01;;;;;;;19.48;10.38;;;7.70;99.90;;;;;;5073615;28;20515;-75
2021/04/30 05:35:28;;;;;;;16.70;9.00;;;7.70;99.90;;;;;;5072753;28;20047;-76
2021/04/30 05:37:54;;;;;;;21.20;11.20;;;7.70;99.90;;;;;;5072141;28;20373;-74
2021/04/30 05:40:19;;;;;;;21.33;10.77;;;7.80;99.90;;;;;;5072817;28;20071;-74
2021/04/30 05:42:45;;;;;;;22.92;9.90;;;7.80;99.90;;;;;;5072628;28;20027;-74
2021/04/30 05:45:12;;;;;;;16.42;9.70;;;7.70;99.90;;;;;;5072567;28;20107;-74
2021/04/30 05:47:38;;;;;;;23.88;10.38;;;7.80;99.90;;;;;;5072715;28;20029;-74
2021/04/30 05:50:05;;;;;;;23.73;10.95;;;7.80;99.90;;;;;;5072386;28;20421;-74
2021/04/30 05:52:30;;;;;;;21.50;10.50;;;7.80;99.90;;;;;;5072156;28;20056;-74
2021/04/30 05:54:56;;;;;;;24.42;10.70;;;8.60;99.90;;;;;;5072836;28;20048;-74
2021/04/30 05:57:21;;;;;;;21.80;10.55;;;9.10;99.90;;;;;;5071688;28;20415;-74
2021/04/30 05:59:47;;;;;;;26.33;10.85;;;7.80;99.90;;;;;;5072373;28;20017;-74
2021/04/30 06:02:13;;;;;;;17.38;10.35;;;7.80;99.90;;;;;;5072356;28;20033;-74
2021/04/30 06:04:38;;;;;;;19.33;11.02;;;7.90;99.90;;;;;;5071798;28;20377;-74
2021/04/30 06:07:04;;;;;;;18.27;10.82;;;7.80;99.90;;;;;;5072581;28;20361;-74
2021/04/30 06:09:29;;;;;;;25.23;11.77;;;7.80;99.90;;;;;;5072373;28;20098;-75
2021/04/30 06:11:55;;;;;;;19.30;10.77;;;7.80;99.90;;;;;;5072022;28;20032;-75
2021/04/30 06:14:25;;;;;;;23.92;11.18;;;7.80;99.90;;;;;;5072231;28;20020;-75
2021/04/30 06:16:51;;;;;;;25.70;12.18;;;7.80;99.90;;;;;;5072708;28;20031;-74
2021/04/30 06:19:17;;;;;;;28.42;12.77;;;7.80;99.90;;;;;;5071587;28;20029;-76
2021/04/30 06:21:42;;;;;;;34.45;12.38;;;7.90;99.90;;;;;;5072646;28;20075;-74
2021/04/30 06:24:08;;;;;;;25.98;12.52;;;7.90;99.90;;;;;;5073042;28;20074;-73
2021/04/30 06:26:34;;;;;;;20.33;12.48;;;7.90;99.90;;;;;;5072149;28;20031;-75
2021/04/30 06:28:59;;;;;;;28.02;12.35;;;8.30;99.90;;;;;;5072406;28;20376;-74
2021/04/30 06:31:25;;;;;;;37.33;13.98;;;7.80;99.90;;;;;;5072108;28;20073;-75
2021/04/30 06:33:51;;;;;;;28.33;13.00;;;7.90;99.90;;;;;;5071374;28;20031;-75
2021/04/30 06:36:16;;;;;;;24.85;14.10;;;7.90;99.90;;;;;;5071959;28;20021;-74
2021/04/30 06:38:42;;;;;;;31.08;13.88;;;7.90;99.90;;;;;;5071162;28;20131;-75
2021/04/30 06:41:08;;;;;;;33.53;13.48;;;8.00;99.90;;;;;;5070746;28;20033;-74
2021/04/30 06:43:33;;;;;;;30.10;14.13;;;8.00;99.90;;;;;;5070406;28;20385;-74
2021/04/30 06:45:59;;;;;;;23.73;13.23;;;8.00;99.90;;;;;;5071894;28;20017;-74
2021/04/30 06:48:24;;;;;;;29.92;15.88;;;8.00;99.90;;;;;;5071123;28;20487;-75
2021/04/30 06:50:50;;;;;;;33.72;14.95;;;8.00;99.90;;;;;;5071858;28;20017;-74
2021/04/30 06:53:16;;;;;;;30.15;13.27;;;8.00;99.90;;;;;;5071070;28;20065;-74
2021/04/30 06:55:41;;;;;;;32.92;14.57;;;8.10;99.90;;;;;;5071871;28;20031;-74
2021/04/30 06:58:07;;;;;;;28.20;13.52;;;8.10;99.90;;;;;;5071764;28;20495;-73
2021/04/30 07:00:32;;;;;;;33.58;14.38;;;8.00;99.90;;;;;;5070893;28;20016;-73
2021/04/30 07:02:58;;;;;;;36.00;15.43;;;8.10;99.90;;;;;;5071778;28;20020;-74
2021/04/30 07:05:23;;;;;;;29.27;14.45;;;8.10;99.90;;;;;;5071625;28;20082;-74
2021/04/30 07:07:49;;;;;;;25.42;14.15;;;8.10;99.90;;;;;;5070678;28;20033;-73
2021/04/30 07:10:15;;;;;;;28.90;15.20;;;8.10;99.90;;;;;;5071388;28;20103;-74
2021/04/30 07:12:41;;;;;;;28.63;15.32;;;8.20;99.90;;;;;;5071172;28;20040;-74
2021/04/30 07:15:08;;;;;;;25.50;15.57;;;8.20;99.90;;;;;;5070299;28;20104;-74
2021/04/30 07:17:34;;;;;;;35.22;16.95;;;8.20;99.90;;;;;;5071563;28;20086;-73
2021/04/30 07:20:00;;;;;;;34.13;15.60;;;8.20;99.90;;;;;;5071770;28;20021;-73
2021/04/30 07:22:26;;;;;;;33.00;16.00;;;8.20;99.90;;;;;;5070880;28;20025;-74
2021/04/30 07:24:51;;;;;;;21.48;14.50;;;8.20;99.90;;;;;;5071480;28;20020;-73
2021/04/30 07:27:17;;;;;;;34.45;16.00;;;8.20;99.90;;;;;;5071657;28;20037;-73
2021/04/30 07:29:44;;;;;;;26.17;15.57;;;8.20;99.90;;;;;;5075772;28;20048;-74
2021/04/30 07:32:10;;;;;;;32.90;15.63;;;8.20;99.90;;;;;;5075118;28;20029;-74
2021/04/30 07:34:36;;;;;;;29.10;14.90;;;8.20;99.90;;;;;;5074230;28;20021;-73
2021/04/30 07:37:01;;;;;;;30.95;15.50;;;8.20;99.90;;;;;;5073491;28;20028;-73
2021/04/30 07:39:27;;;;;;;33.85;16.50;;;8.20;99.90;;;;;;5074640;28;20029;-74
2021/04/30 07:41:53;;;;;;;25.33;14.63;;;8.10;99.90;;;;;;5075178;28;20111;-74
2021/04/30 07:44:19;;;;;;;31.20;16.90;;;8.10;99.90;;;;;;5074171;28;20027;-74
2021/04/30 07:46:45;;;;;;;31.38;15.77;;;8.10;99.90;;;;;;5075311;28;20033;-73
2021/04/30 07:49:10;;;;;;;27.45;15.40;;;8.10;99.90;;;;;;5075114;28;20138;-74
2021/04/30 07:51:39;;;;;;;39.92;16.50;;;8.10;99.90;;;;;;5074146;28;20024;-74
2021/04/30 07:54:05;;;;;;;31.50;16.55;;;8.10;99.90;;;;;;5074964;28;20035;-73
2021/04/30 07:56:33;;;;;;;33.60;16.50;;;8.10;99.90;;;;;;5074001;28;20029;-74
2021/04/30 07:58:59;;;;;;;30.98;15.93;;;8.10;99.90;;;;;;5074980;28;20016;-74
2021/04/30 08:01:24;;;;;;;29.00;16.15;;;8.10;99.90;;;;;;5074750;28;20025;-73
2021/04/30 08:03:50;;;;;;;34.05;17.05;;;8.10;99.90;;;;;;5074587;28;20082;-74
2021/04/30 08:06:17;;;;;;;28.20;17.27;;;8.10;99.90;;;;;;5074952;28;20099;-74
2021/04/30 08:08:42;;;;;;;27.38;16.88;;;8.10;99.90;;;;;;5074959;28;20041;-74
2021/04/30 08:11:08;;;;;;;31.15;16.20;;;8.20;99.90;;;;;;5074830;28;20036;-74
2021/04/30 08:13:35;;;;;;;23.40;16.13;;;8.20;99.90;;;;;;5075338;28;20021;-72
2021/04/30 08:16:01;;;;;;;29.33;17.10;;;8.20;99.90;;;;;;5074984;28;20142;-75
2021/04/30 08:18:27;;;;;;;35.03;15.82;;;8.20;99.90;;;;;;5073543;28;20051;-72
2021/04/30 08:20:53;;;;;;;36.92;16.73;;;8.20;99.90;;;;;;5074866;28;20422;-73
2021/04/30 08:23:18;;;;;;;35.25;17.60;;;8.30;99.90;;;;;;5074258;28;20146;-73
2021/04/30 08:25:44;;;;;;;34.03;16.77;;;8.30;99.90;;;;;;5073851;28;20028;-73
2021/04/30 08:28:09;;;;;;;27.70;16.92;;;8.30;99.90;;;;;;5074445;28;20039;-73
2021/04/30 08:30:35;;;;;;;30.17;16.90;;;8.30;99.90;;;;;;5074262;28;20016;-74
2021/04/30 08:33:01;;;;;;;29.05;17.92;;;8.30;99.90;;;;;;5074060;28;20028;-73
2021/04/30 08:35:26;;;;;;;39.67;17.52;;;8.30;99.90;;;;;;5074036;28;20021;-73
2021/04/30 08:37:59;;;;;;;29.80;18.52;;;8.40;99.90;;;;;;5074083;28;20036;-73
2021/04/30 08:40:25;;;;;;;37.33;17.25;;;8.40;99.90;;;;;;5072582;28;20025;-73
2021/04/30 08:42:51;;;;;;;29.90;15.93;;;8.40;99.90;;;;;;5074896;28;20020;-75
2021/04/30 08:45:17;;;;;;;32.72;16.83;;;8.50;99.90;;;;;;5074270;28;20081;-73
2021/04/30 08:47:44;;;;;;;34.20;17.98;;;8.50;99.90;;;;;;5074034;28;20035;-73
2021/04/30 08:50:11;;;;;;;30.42;16.30;;;8.60;99.90;;;;;;5074780;28;20024;-74
2021/04/30 08:52:37;;;;;;;27.42;16.48;;;8.70;99.90;;;;;;5074036;28;20476;-74
2021/04/30 08:55:07;;;;;;;27.58;15.93;;;8.70;99.90;;;;;;5074552;28;20026;-73
2021/04/30 08:57:35;;;;;;;29.40;17.03;;;8.70;99.90;;;;;;5073635;28;20362;-74
2021/04/30 09:00:00;;;;;;;28.25;16.15;;;8.70;99.90;;;;;;5073721;28;20368;-73
2021/04/30 09:02:32;;;;;;;36.67;17.67;;;8.70;99.90;;;;;;5074685;28;20028;-76
2021/04/30 09:04:59;;;;;;;27.33;16.73;;;8.80;99.90;;;;;;5074704;28;20687;-75
2021/04/30 09:07:25;;;;;;;29.88;16.65;;;8.80;99.90;;;;;;5072694;28;20044;-74
2021/04/30 09:10:06;;;;;;;23.90;14.60;;;8.80;99.90;;;;;;5074035;28;20494;-73
2021/04/30 09:12:32;;;;;;;;;;;8.80;99.90;;;;;;5074297;28;20047;-73
2021/04/30 09:14:59;;;;;;;24.30;15.30;;;8.90;99.90;;;;;;5073579;28;19908;-74
2021/04/30 09:17:27;;;;;;;32.35;17.05;;;8.80;99.90;;;;;;5073382;28;20032;-74
2021/04/30 09:20:03;;;;;;;31.92;16.33;;;8.80;99.90;;;;;;5073273;28;20021;-73
2021/04/30 09:22:35;;;;;;;31.88;17.20;;;8.80;99.90;;;;;;5072669;28;20033;-73
2021/04/30 09:25:05;;;;;;;29.65;15.68;;;8.70;99.90;;;;;;5073525;28;20029;-73
2021/04/30 09:27:39;;;;;;;28.77;16.95;;;8.80;99.90;;;;;;5073162;28;20086;-73
2021/04/30 09:30:20;;;;;;;28.38;16.63;;;8.80;99.90;;;;;;5072979;28;20020;-74
2021/04/30 09:33:16;;;;;;;30.83;16.60;;;8.70;99.90;;;;;;5073425;28;20024;-73
2021/04/30 09:35:43;;;;;;;31.92;17.98;;;8.80;99.90;;;;;;5072249;28;20322;-73
2021/04/30 09:38:14;;;;;;;31.60;16.80;;;8.80;99.90;;;;;;5073050;28;20052;-73
2021/04/30 09:40:40;;;;;;;22.73;17.33;;;8.80;99.90;;;;;;5073009;28;20354;-74
2021/04/30 09:43:07;;;;;;;26.63;19.33;;;8.90;99.90;;;;;;5072700;28;20028;-74
2021/04/30 09:45:34;;;;;;;27.20;18.83;;;8.80;99.90;;;;;;5073015;28;20032;-74
2021/04/30 09:48:04;;;;;;;22.67;18.23;;;8.90;99.90;;;;;;5073134;28;20040;-74
2021/04/30 09:50:31;;;;;;;26.55;18.55;;;8.90;99.90;;;;;;5071882;28;20350;-73
2021/04/30 09:52:59;;;;;;;26.92;18.98;;;8.90;99.90;;;;;;5072996;28;20417;-74
2021/04/30 09:55:48;;;;;;;32.78;19.42;;;8.90;99.90;;;;;;5072914;28;20021;-73
2021/04/30 09:58:18;;;;;;;30.35;21.77;;;8.90;99.90;;;;;;5072139;28;20108;-73
2021/04/30 10:00:47;;;;;;;38.60;22.50;;;9.00;99.90;;;;;;5072893;28;20071;-73
2021/04/30 10:03:24;;;;;;;28.77;21.63;;;9.00;99.90;;;;;;5071643;28;20024;-74
2021/04/30 10:06:13;;;;;;;32.92;21.25;;;9.00;99.90;;;;;;5072726;28;20032;-73
2021/04/30 10:08:40;;;;;;;31.35;21.38;;;9.00;99.90;;;;;;5072610;28;20032;-73
2021/04/30 10:11:30;;;;;;;28.73;18.33;;;9.00;99.90;;;;;;5071643;28;20040;-74
2021/04/30 10:13:56;;;;;;;24.67;18.15;;;9.00;99.90;;;;;;5072534;28;20027;-73
2021/04/30 10:16:21;;;;;;;28.38;19.38;;;8.90;99.90;;;;;;5072266;28;20025;-74
2021/04/30 10:18:47;;;;;;;21.38;17.60;;;8.60;99.90;;;;;;5071848;28;20024;-73
2021/04/30 10:21:13;;;;;;;24.23;18.55;;;9.00;99.90;;;;;;5072224;28;20035;-73
2021/04/30 10:23:49;;;;;;;24.92;17.65;;;9.10;99.90;;;;;;5072263;28;20101;-73
2021/04/30 10:26:17;;;;;;;24.33;18.20;;;9.10;99.90;;;;;;5071147;28;20025;-73
2021/04/30 10:28:49;;;;;;;21.27;16.58;;;9.20;99.90;;;;;;5072320;28;20025;-73
2021/04/30 10:31:20;;;;;;;22.58;16.35;;;9.20;99.90;;;;;;5071425;28;20067;-73
2021/04/30 10:34:12;;;;;;;20.17;16.52;;;10.10;99.90;;;;;;5072130;28;20030;-73
2021/04/30 10:36:59;;;;;;;21.98;15.50;;;9.20;99.90;;;;;;5061014;28;20041;-72
2021/04/30 10:39:32;;;;;;;20.88;16.65;;;9.40;99.90;;;;;;5071375;28;20047;-73
2021/04/30 10:41:58;;;;;;;18.67;15.88;;;9.50;99.90;;;;;;5072218;28;20024;-73
2021/04/30 10:44:28;;;;;;;24.08;16.88;;;9.60;99.90;;;;;;5071771;28;20024;-73
2021/04/30 10:47:12;;;;;;;21.90;17.42;;;9.80;99.90;;;;;;5071337;28;20044;-72
2021/04/30 10:49:39;;;;;;;20.02;15.25;;;10.00;99.90;;;;;;5071984;28;20028;-74
2021/04/30 10:52:08;;;;;;;19.88;14.55;;;10.00;99.90;;;;;;5071492;28;20029;-73
2021/04/30 10:54:37;;;;;;;17.95;16.10;;;10.00;99.90;;;;;;5070851;28;20043;-74
2021/04/30 10:57:16;;;;;;;21.13;15.77;;;10.10;99.90;;;;;;5071688;28;20105;-73
2021/04/30 10:59:45;;;;;;;17.95;15.85;;;10.20;99.90;;;;;;5070722;28;20028;-74
2021/04/30 11:02:20;;;;;;;17.10;15.30;;;10.30;99.90;;;;;;5070913;28;20021;-74
2021/04/30 11:05:09;;;;;;;20.83;16.38;;;10.50;99.90;;;;;;5071527;28;20035;-74
2021/04/30 11:07:39;;;;;;;19.88;15.45;;;10.70;99.90;;;;;;5070325;28;20484;-74
2021/04/30 11:10:26;;;;;;;19.85;16.38;;;10.80;99.90;;;;;;5071440;28;20027;-74
2021/04/30 11:13:09;;;;;;;17.70;14.73;;;11.20;99.90;;;;;;5071515;28;20036;-74
2021/04/30 11:15:44;;;;;;;16.83;15.02;;;11.50;99.90;;;;;;5070582;28;20025;-75
2021/04/30 11:18:10;;;;;;;18.70;14.10;;;11.60;99.90;;;;;;5071408;28;20021;-74
2021/04/30 11:20:40;;;;;;;17.58;14.88;;;11.80;99.90;;;;;;5070241;28;20102;-74
2021/04/30 11:23:18;;;;;;;18.98;14.65;;;11.90;99.90;;;;;;5071287;28;20384;-74
2021/04/30 11:26:12;;;;;;;17.42;14.38;;;12.00;99.90;;;;;;5071452;28;20036;-73
2021/04/30 11:28:37;;;;;;;19.95;13.70;;;12.00;99.90;;;;;;5068170;28;20115;-73
2021/04/30 11:31:32;;;;;;;19.17;14.10;;;12.00;99.90;;;;;;5071525;28;20101;-73
2021/04/30 11:34:12;;;;;;;18.00;14.48;;;12.00;99.90;;;;;;5071301;28;20028;-73
2021/04/30 11:36:42;;;;;;;20.27;15.20;;;11.90;99.90;;;;;;5070689;28;20130;-73
2021/04/30 11:39:14;;;;;;;17.17;15.27;;;11.90;99.90;;;;;;5071206;28;20048;-73
2021/04/30 11:41:44;;;;;;;17.15;15.38;;;11.80;99.90;;;;;;5070689;28;20440;-73
2021/04/30 11:44:10;;;;;;;18.73;16.02;;;11.80;99.90;;;;;;5071483;28;20032;-73
2021/04/30 11:46:38;;;;;;;19.20;15.93;;;11.80;99.90;;;;;;5071094;28;20033;-74
2021/04/30 11:49:04;;;;;;;16.23;14.57;;;11.80;99.90;;;;;;5070541;28;20104;-74
2021/04/30 11:51:29;;;;;;;15.07;12.88;;;11.80;99.90;;;;;;5071151;28;20606;-73
2021/04/30 11:53:57;;;;;;;16.02;11.93;;;11.80;99.90;;;;;;5071461;28;20077;-73
2021/04/30 11:56:30;;;;;;;11.57;10.48;;;11.80;99.90;;;;;;5070257;28;20485;-73
2021/04/30 11:58:56;;;;;;;10.38;9.30;;;11.90;99.90;;;;;;5071645;28;20024;-73
2021/04/30 12:01:22;;;;;;;10.63;8.32;;;11.80;99.90;;;;;;5070992;28;20067;-73
2021/04/30 12:03:54;;;;;;;12.93;8.32;;;11.70;99.90;;;;;;5070826;28;20040;-73
2021/04/30 12:06:21;;;;;;;9.13;6.90;;;11.60;99.90;;;;;;5070738;28;20040;-73
2021/04/30 12:08:48;;;;;;;9.65;7.10;;;11.30;99.90;;;;;;5070669;28;20029;-72
2021/04/30 12:11:27;;;;;;;16.05;8.98;;;11.10;99.90;;;;;;5059048;28;20025;-73
2021/04/30 12:13:54;;;;;;;14.60;10.63;;;10.90;99.90;;;;;;5067393;28;20507;-73
2021/04/30 12:16:21;;;;;;;12.88;10.38;;;10.70;99.90;;;;;;5071410;28;20496;-74
2021/04/30 12:18:52;;;;;;;14.35;10.50;;;10.70;99.90;;;;;;5074158;28;20111;-74
2021/04/30 12:21:25;;;;;;;17.30;11.18;;;10.70;99.90;;;;;;5074599;28;20027;-73
2021/04/30 12:23:51;;;;;;;16.92;13.57;;;10.90;99.90;;;;;;5074286;28;20028;-73
2021/04/30 12:26:27;;;;;;;16.73;14.02;;;11.00;99.90;;;;;;5074517;28;20519;-74
2021/04/30 12:28:55;;;;;;;13.13;11.65;;;11.20;99.90;;;;;;5074943;28;20020;-73
2021/04/30 12:31:21;;;;;;;12.57;9.65;;;11.20;99.90;;;;;;5074054;28;20052;-76
2021/04/30 12:33:49;;;;;;;12.68;7.55;;;11.10;99.90;;;;;;5074729;28;20024;-74
2021/04/30 12:36:26;;;;;;;18.58;7.38;;;11.10;99.90;;;;;;5074321;28;20036;-74
2021/04/30 12:39:08;;;;;;;14.43;7.07;;;11.00;99.90;;;;;;5073309;28;20408;-74
2021/04/30 12:41:39;;;;;;;12.15;7.70;;;11.00;99.90;;;;;;5074224;28;20028;-75
2021/04/30 12:44:11;;;;;;;12.65;7.45;;;10.90;99.90;;;;;;5074174;28;20025;-74